Time;durP1;ratioP1;P1;durP2;ratioP2;P2;SDS_P1;SDS_P2;PMS_P1;PMS_P2;Temp;Humidity;BMP_temperature;BMP_pressure;BME280_temperature;BME280_humidity;BME280_pressure;Samples;Min_cycle;Max_cycle;Signal;HPM_P1;HPM_P2
2022/02/28 00:01:54;;;;;;;2.75;2.20;;;;;;;0.34;61.54;94079.78;5023026;28;20031;-74
2022/02/28 00:04:21;;;;;;;4.18;2.47;;;;;;;0.30;62.74;94139.63;5019724;28;20519;-72
2022/02/28 00:06:47;;;;;;;3.00;2.38;;;;;;;-0.44;64.09;94135.66;5022996;28;20057;-74
2022/02/28 00:09:12;;;;;;;2.92;2.22;;;;;;;0.01;64.92;94126.94;5028656;28;20037;-73
2022/02/28 00:11:38;;;;;;;2.58;2.28;;;;;;;-0.15;65.50;94118.06;5021159;28;20062;-75
2022/02/28 00:14:03;;;;;;;2.83;2.28;;;;;;;0.43;64.72;94129.88;5020435;28;20419;-74
2022/02/28 00:16:29;;;;;;;3.90;2.78;;;;;;;0.47;63.02;94105.59;5019432;28;20033;-74
2022/02/28 00:18:54;;;;;;;2.45;2.15;;;;;;;0.42;62.14;94102.91;5027646;28;20117;-76
2022/02/28 00:21:20;;;;;;;3.38;2.55;;;;;;;0.50;62.14;94110.31;5019746;28;20111;-73
2022/02/28 00:23:45;;;;;;;4.50;2.75;;;;;;;-0.09;63.61;94128.34;5024805;28;20087;-72
2022/02/28 00:26:11;;;;;;;4.00;2.25;;;;;;;0.67;63.52;94126.78;5020175;28;20029;-74
2022/02/28 00:28:36;;;;;;;3.33;2.70;;;;;;;0.14;63.31;94110.91;5036415;28;20599;-75
2022/02/28 00:31:03;;;;;;;4.97;2.72;;;;;;;0.16;64.21;94124.50;5024607;28;20037;-73
2022/02/28 00:33:29;;;;;;;2.90;2.38;;;;;;;0.24;63.52;94121.50;5022808;28;20055;-74
2022/02/28 00:35:55;;;;;;;3.53;2.63;;;;;;;0.71;62.85;94096.44;5024325;28;20033;-75
2022/02/28 00:38:20;;;;;;;12.13;6.85;;;;;;;0.29;62.76;94082.34;5021117;28;20029;-74
2022/02/28 00:40:47;;;;;;;5.47;4.20;;;;;;;0.67;62.81;94124.16;5023672;28;20033;-73
2022/02/28 00:43:12;;;;;;;5.25;3.85;;;;;;;0.80;63.12;94120.38;5026336;28;20586;-73
2022/02/28 00:45:38;;;;;;;8.80;4.50;;;;;;;0.62;63.26;94118.84;5025726;28;20727;-74
2022/02/28 00:48:04;;;;;;;7.00;4.68;;;;;;;0.86;62.59;94119.41;5028336;28;20048;-75
2022/02/28 00:50:30;;;;;;;5.35;3.38;;;;;;;0.49;63.58;94118.44;5027205;28;20383;-74
2022/02/28 00:52:55;;;;;;;7.13;3.10;;;;;;;0.85;63.27;94111.78;5027950;28;20025;-75
2022/02/28 00:55:21;;;;;;;4.60;4.13;;;;;;;0.94;62.99;94087.53;5028920;28;21242;-74
2022/02/28 00:57:46;;;;;;;6.57;3.95;;;;;;;1.74;61.20;94104.25;5022977;28;20507;-74
2022/02/28 01:00:18;;;;;;;4.85;3.40;;;;;;;1.60;60.38;94081.06;5028501;28;20079;-73
2022/02/28 01:02:45;;;;;;;16.00;4.78;;;;;;;1.79;60.36;94085.91;5024913;28;20501;-73
2022/02/28 01:05:12;;;;;;;7.75;3.88;;;;;;;2.14;59.69;94096.69;5027885;28;20171;-74
2022/02/28 01:07:38;;;;;;;3.60;3.13;;;;;;;2.15;59.69;94100.91;5025216;28;20033;-75
2022/02/28 01:10:08;;;;;;;5.07;2.90;;;;;;;2.02;59.30;94093.44;5023806;28;20041;-73
2022/02/28 01:12:33;;;;;;;3.08;2.55;;;;;;;1.82;59.69;94072.28;5027724;28;20747;-75
2022/02/28 01:14:59;;;;;;;3.30;3.00;;;;;;;2.24;59.02;94093.34;5024849;28;20037;-75
2022/02/28 01:17:25;;;;;;;5.03;3.03;;;;;;;2.28;58.69;94091.78;5025513;28;20064;-75
2022/02/28 01:19:50;;;;;;;3.85;3.38;;;;;;;2.01;59.29;94078.78;5024850;28;20315;-73
2022/02/28 01:22:16;;;;;;;5.60;2.92;;;;;;;2.21;59.03;94084.13;5020194;28;20570;-74
2022/02/28 01:24:42;;;;;;;3.28;2.97;;;;;;;2.21;58.99;94081.50;5030565;28;20037;-76
2022/02/28 01:27:08;;;;;;;6.45;3.80;;;;;;;2.37;58.51;94074.50;5029870;28;20041;-74
2022/02/28 01:29:33;;;;;;;6.47;4.40;;;;;;;2.21;58.09;94042.13;5028033;28;20041;-74
2022/02/28 01:32:00;;;;;;;4.57;3.88;;;;;;;2.67;57.85;94093.00;5036000;28;20633;-74
2022/02/28 01:34:26;;;;;;;9.68;5.18;;;;;;;2.31;57.59;94031.69;5028936;28;20575;-73
2022/02/28 01:36:51;;;;;;;7.85;4.95;;;;;;;2.66;57.16;94072.25;5026706;28;20033;-75
2022/02/28 01:39:17;;;;;;;7.38;4.60;;;;;;;2.62;56.85;94047.56;5030489;28;20076;-74
2022/02/28 01:41:43;;;;;;;11.93;5.80;;;;;;;3.11;54.98;94080.28;5026488;28;20176;-75
2022/02/28 01:44:10;;;;;;;6.88;4.45;;;;;;;2.78;55.06;94059.69;5025629;28;20163;-74
2022/02/28 01:46:39;;;;;;;4.18;3.45;;;;;;;2.79;55.20;94071.78;5027889;28;20059;-73
2022/02/28 01:49:04;;;;;;;4.85;2.75;;;;;;;2.79;54.93;94079.66;5028318;28;20052;-73
2022/02/28 01:51:29;;;;;;;3.35;2.67;;;;;;;2.68;54.90;94083.31;5027739;28;20623;-74
2022/02/28 01:53:55;;;;;;;5.07;2.67;;;;;;;2.57;54.49;94071.97;5028103;28;20174;-72
2022/02/28 01:56:21;;;;;;;3.00;2.63;;;;;;;2.55;54.83;94084.53;5027955;28;20026;-72
2022/02/28 01:58:47;;;;;;;2.50;2.17;;;;;;;2.17;54.77;94027.16;5024348;28;20017;-72
2022/02/28 02:01:12;;;;;;;2.55;2.35;;;;;;;2.61;54.24;94067.78;5025016;28;20699;-75
2022/02/28 02:03:40;;;;;;;3.92;2.47;;;;;;;2.58;54.37;94072.75;5024545;28;20042;-73
2022/02/28 02:06:09;;;;;;;3.22;2.20;;;;;;;2.20;54.50;94039.78;5027621;28;20047;-73
2022/02/28 02:08:34;;;;;;;3.35;2.40;;;;;;;2.31;54.92;94073.66;5026635;28;20116;-74
2022/02/28 02:11:01;;;;;;;3.45;2.60;;;;;;;2.21;54.95;94076.25;5025624;28;20029;-72
2022/02/28 02:13:27;;;;;;;2.47;2.28;;;;;;;2.30;54.32;94072.13;5025764;28;20305;-72
2022/02/28 02:15:53;;;;;;;2.65;2.40;;;;;;;2.37;54.35;94069.25;5028397;28;20049;-72
2022/02/28 02:18:19;;;;;;;2.35;1.98;;;;;;;2.30;54.04;94072.13;5026905;28;20483;-71
2022/02/28 02:20:44;;;;;;;2.42;2.15;;;;;;;1.99;54.51;94059.84;5029049;28;20082;-73
2022/02/28 02:23:13;;;;;;;3.88;2.15;;;;;;;1.84;55.18;94067.59;5041098;28;21037;-74
2022/02/28 02:25:40;;;;;;;3.20;2.20;;;;;;;1.49;55.68;94034.03;5027870;28;20507;-72
2022/02/28 02:28:08;;;;;;;1.98;1.60;;;;;;;1.72;55.70;94077.50;5026329;28;20067;-72
2022/02/28 02:30:34;;;;;;;2.45;1.75;;;;;;;1.63;55.96;94072.69;5030454;28;20033;-70
2022/02/28 02:33:00;;;;;;;5.38;2.08;;;;;;;1.63;56.06;94066.66;5026989;28;20451;-72
2022/02/28 02:35:27;;;;;;;3.53;2.00;;;;;;;1.58;56.33;94075.28;5023677;28;20506;-72
2022/02/28 02:37:52;;;;;;;1.80;1.70;;;;;;;1.35;56.40;94059.09;5025479;28;20095;-72
2022/02/28 02:40:18;;;;;;;5.80;2.53;;;;;;;1.29;56.62;94060.88;5024419;28;20036;-72
2022/02/28 02:42:44;;;;;;;2.33;2.15;;;;;;;1.60;56.36;94081.06;5025681;28;20159;-71
2022/02/28 02:45:13;;;;;;;2.70;2.00;;;;;;;1.47;57.34;94073.59;5041981;28;20271;-74
2022/02/28 02:47:39;;;;;;;2.58;2.08;;;;;;;1.57;55.88;94062.44;5025266;28;20295;-72
2022/02/28 02:50:05;;;;;;;2.33;1.77;;;;;;;1.40;55.98;94041.59;5026606;28;20025;-73
2022/02/28 02:52:31;;;;;;;2.47;1.63;;;;;;;1.58;55.81;94064.78;5020723;28;20041;-73
2022/02/28 02:54:57;;;;;;;4.63;2.03;;;;;;;1.10;55.79;94052.59;5025507;28;20087;-71
2022/02/28 02:57:22;;;;;;;1.67;1.48;;;;;;;1.24;56.78;94064.25;5026337;28;20071;-72
2022/02/28 02:59:49;;;;;;;2.45;1.95;;;;;;;1.53;55.88;94077.84;5027553;28;20037;-74
2022/02/28 03:02:19;;;;;;;2.50;1.83;;;;;;;1.51;55.83;94072.09;5026780;28;20033;-74
2022/02/28 03:04:44;;;;;;;4.82;2.45;;;;;;;1.42;55.84;94075.41;5026252;28;20025;-71
2022/02/28 03:07:15;;;;;;;3.03;1.85;;;;;;;1.37;56.39;94081.41;5027145;28;20048;-72
2022/02/28 03:09:40;;;;;;;2.72;1.95;;;;;;;1.14;56.10;94058.13;5024771;28;20041;-73
2022/02/28 03:12:06;;;;;;;2.03;1.73;;;;;;;1.00;56.42;94062.19;5025894;28;20431;-72
2022/02/28 03:14:31;;;;;;;2.40;1.90;;;;;;;0.97;56.50;94070.53;5027341;28;20047;-73
2022/02/28 03:16:57;;;;;;;2.78;2.15;;;;;;;1.19;56.16;94079.91;5025840;28;20051;-74
2022/02/28 03:19:22;;;;;;;1.75;1.65;;;;;;;1.02;56.27;94081.06;5026718;28;20125;-75
2022/02/28 03:21:47;;;;;;;2.65;1.70;;;;;;;0.87;55.89;94083.53;5026114;28;20091;-76
2022/02/28 03:24:13;;;;;;;2.38;2.00;;;;;;;0.98;56.37;94080.78;5023151;28;20045;-75
2022/02/28 03:26:38;;;;;;;2.33;1.75;;;;;;;0.69;55.92;94088.03;5027614;28;20446;-75
2022/02/28 03:29:03;;;;;;;2.17;1.88;;;;;;;0.51;56.15;94077.09;5030567;28;20071;-75
2022/02/28 03:31:29;;;;;;;3.38;1.83;;;;;;;0.17;57.48;94042.41;5027474;28;20037;-74
2022/02/28 03:33:55;;;;;;;1.85;1.67;;;;;;;0.43;57.11;94067.06;5027234;28;20033;-75
2022/02/28 03:36:20;;;;;;;3.25;1.92;;;;;;;0.66;57.01;94078.06;5028107;28;20759;-76
2022/02/28 03:38:45;;;;;;;5.80;1.83;;;;;;;0.58;57.50;94060.19;5028252;28;20075;-76
2022/02/28 03:41:11;;;;;;;2.85;1.95;;;;;;;0.78;56.37;94070.09;5027529;28;20490;-74
2022/02/28 03:43:37;;;;;;;2.40;2.13;;;;;;;-0.05;55.72;93978.84;5024753;28;20054;-76
2022/02/28 03:46:02;;;;;;;1.73;1.60;;;;;;;0.22;55.99;94008.47;5024441;28;20067;-74
2022/02/28 03:48:28;;;;;;;2.30;1.98;;;;;;;0.67;56.18;94068.38;5022262;28;20064;-77
2022/02/28 03:50:53;;;;;;;2.22;2.00;;;;;;;0.72;56.58;94071.06;5028689;28;20128;-75
2022/02/28 03:53:18;;;;;;;2.90;2.08;;;;;;;0.93;57.41;94093.03;5024640;28;20033;-74
2022/02/28 03:55:44;;;;;;;3.05;2.17;;;;;;;1.02;56.90;94079.25;5028647;28;20059;-77
2022/02/28 03:58:09;;;;;;;2.13;1.90;;;;;;;1.31;56.00;94090.25;5023420;28;20060;-74
2022/02/28 04:00:34;;;;;;;2.35;1.80;;;;;;;1.22;56.29;94097.00;5027124;28;20060;-75
2022/02/28 04:03:00;;;;;;;2.08;1.88;;;;;;;0.96;56.32;94069.75;5026893;28;20045;-75
2022/02/28 04:05:26;;;;;;;2.10;1.90;;;;;;;0.97;56.76;94088.88;5025555;28;20037;-76
2022/02/28 04:07:51;;;;;;;3.95;1.73;;;;;;;0.63;56.58;94103.94;5029980;28;20040;-75
2022/02/28 04:10:17;;;;;;;2.28;1.75;;;;;;;0.48;57.54;94039.13;5026405;28;20044;-75
2022/02/28 04:12:43;;;;;;;2.15;1.77;;;;;;;0.98;57.59;94095.69;5026178;28;20037;-75
2022/02/28 04:15:08;;;;;;;4.32;2.15;;;;;;;1.08;56.39;94061.75;5023978;28;20068;-76
2022/02/28 04:17:34;;;;;;;2.30;2.00;;;;;;;1.37;56.17;94094.50;5028893;28;20104;-76
2022/02/28 04:20:00;;;;;;;3.22;1.98;;;;;;;1.32;56.05;94076.13;5028554;28;20040;-75
2022/02/28 04:22:26;;;;;;;1.92;1.60;;;;;;;1.64;55.47;94089.22;5032320;28;20033;-76
2022/02/28 04:24:51;;;;;;;2.97;1.88;;;;;;;1.20;54.95;94071.03;5030143;28;20044;-76
2022/02/28 04:27:16;;;;;;;1.73;1.58;;;;;;;1.11;55.33;94083.00;5046860;28;20037;-75
2022/02/28 04:29:42;;;;;;;3.67;1.75;;;;;;;1.23;55.36;94103.78;5031074;28;20038;-75
2022/02/28 04:32:08;;;;;;;3.00;1.50;;;;;;;1.17;56.19;94107.41;5031471;28;20021;-75
2022/02/28 04:34:33;;;;;;;2.80;1.77;;;;;;;1.13;55.39;94067.03;5027334;28;20574;-77
2022/02/28 04:36:59;;;;;;;2.97;1.65;;;;;;;1.14;56.04;94092.97;5028576;28;20815;-75
2022/02/28 04:39:25;;;;;;;3.03;2.03;;;;;;;1.09;56.49;94079.81;5031585;28;20037;-76
2022/02/28 04:41:50;;;;;;;2.55;1.85;;;;;;;1.22;56.70;94107.47;5025541;28;20131;-75
2022/02/28 04:44:16;;;;;;;2.78;1.83;;;;;;;1.32;56.55;94093.66;5030554;28;20564;-76
2022/02/28 04:46:41;;;;;;;4.03;2.50;;;;;;;1.64;55.43;94111.00;5032296;28;20037;-77
2022/02/28 04:49:07;;;;;;;2.58;1.65;;;;;;;1.75;54.71;94090.09;5033683;28;20076;-75
2022/02/28 04:51:32;;;;;;;2.65;1.95;;;;;;;1.76;54.33;94115.28;5031401;28;20044;-76
2022/02/28 04:53:57;;;;;;;2.42;2.22;;;;;;;1.38;54.91;94087.41;5030666;28;20116;-76
2022/02/28 04:56:23;;;;;;;2.70;2.20;;;;;;;1.01;56.02;94097.81;5025379;28;20086;-76
2022/02/28 04:58:48;;;;;;;2.00;1.90;;;;;;;1.27;56.30;94114.59;5031852;28;20029;-75
2022/02/28 05:01:14;;;;;;;3.15;1.73;;;;;;;1.45;56.13;94117.63;5026764;28;21340;-76
2022/02/28 05:03:39;;;;;;;2.28;2.08;;;;;;;1.57;55.74;94115.63;5049910;28;20045;-76
2022/02/28 05:06:05;;;;;;;1.80;1.70;;;;;;;1.69;55.67;94112.84;5028778;28;20091;-76
2022/02/28 05:08:30;;;;;;;2.60;1.58;;;;;;;1.75;55.98;94129.41;5031628;28;20457;-77
2022/02/28 05:10:56;;;;;;;3.42;1.75;;;;;;;1.45;54.80;94054.72;5031521;28;20664;-75
2022/02/28 05:13:21;;;;;;;1.77;1.60;;;;;;;1.91;54.68;94105.69;5026063;28;20049;-75
2022/02/28 05:15:46;;;;;;;2.28;2.08;;;;;;;1.83;54.92;94102.72;5030624;28;20469;-76
2022/02/28 05:18:12;;;;;;;4.40;3.28;;;;;;;1.93;55.02;94121.19;5027267;28;20043;-73
2022/02/28 05:20:37;;;;;;;2.75;2.17;;;;;;;2.20;54.34;94124.53;5030961;28;20363;-75
2022/02/28 05:23:03;;;;;;;4.03;2.50;;;;;;;2.22;53.64;94125.06;5031271;28;20035;-75
2022/02/28 05:25:28;;;;;;;2.50;1.73;;;;;;;2.21;53.57;94133.97;5026167;28;20069;-76
2022/02/28 05:27:53;;;;;;;2.28;2.05;;;;;;;1.92;54.15;94124.84;5032871;28;20392;-76
2022/02/28 05:30:19;;;;;;;2.63;1.83;;;;;;;1.72;54.27;94112.34;5028581;28;20089;-75
2022/02/28 05:32:45;;;;;;;2.47;1.92;;;;;;;2.05;54.25;94143.59;5025138;28;20065;-74
2022/02/28 05:35:12;;;;;;;22.25;7.97;;;;;;;2.02;55.00;94135.41;5031775;28;20028;-75
2022/02/28 05:37:39;;;;;;;23.02;9.57;;;;;;;2.02;54.73;94140.66;5027881;28;20017;-76
2022/02/28 05:40:05;;;;;;;7.40;4.60;;;;;;;2.04;53.88;94133.34;5027815;28;20049;-75
2022/02/28 05:42:31;;;;;;;3.78;3.13;;;;;;;1.69;54.75;94139.06;5027157;28;20204;-78
2022/02/28 05:44:56;;;;;;;4.72;2.72;;;;;;;1.78;54.93;94147.28;5027443;28;20527;-75
2022/02/28 05:47:22;;;;;;;6.57;3.30;;;;;;;2.02;54.35;94143.28;5029104;28;20186;-76
2022/02/28 05:49:47;;;;;;;2.45;2.22;;;;;;;1.43;55.51;94122.31;5029843;28;20067;-76
2022/02/28 05:52:13;;;;;;;2.72;2.22;;;;;;;1.58;55.43;94153.91;5023654;28;20102;-73
2022/02/28 05:54:38;;;;;;;4.07;3.17;;;;;;;1.82;55.55;94157.00;5026015;28;20036;-74
2022/02/28 05:57:05;;;;;;;3.33;2.28;;;;;;;1.67;55.39;94136.69;5031068;28;20083;-76
2022/02/28 05:59:31;;;;;;;3.47;1.67;;;;;;;2.02;55.27;94159.81;5026911;28;21348;-76
2022/02/28 06:01:57;;;;;;;3.08;2.35;;;;;;;1.93;54.02;94129.06;5030918;28;20376;-76
2022/02/28 06:04:22;;;;;;;1.75;1.65;;;;;;;1.61;54.71;94131.69;5023854;28;20368;-74
2022/02/28 06:06:47;;;;;;;3.65;2.47;;;;;;;1.48;55.08;94132.84;5031179;28;20041;-75
2022/02/28 06:09:13;;;;;;;1.58;1.48;;;;;;;0.91;55.81;94157.94;5038346;28;20403;-75
2022/02/28 06:11:38;;;;;;;2.85;2.28;;;;;;;1.00;56.18;94093.59;5025858;28;20047;-76
2022/02/28 06:14:04;;;;;;;2.08;1.98;;;;;;;1.76;55.05;94152.00;5027799;28;20029;-75
2022/02/28 06:16:29;;;;;;;1.83;1.67;;;;;;;0.50;57.57;94156.63;5026465;28;20045;-75
2022/02/28 06:18:55;;;;;;;2.20;1.85;;;;;;;1.16;57.23;94150.38;5034443;28;20033;-76
2022/02/28 06:21:20;;;;;;;5.18;3.42;;;;;;;1.23;58.16;94156.97;5027319;28;20037;-76
2022/02/28 06:23:45;;;;;;;4.28;2.28;;;;;;;1.62;57.28;94159.44;5026504;28;20033;-76
2022/02/28 06:26:11;;;;;;;3.20;2.67;;;;;;;1.11;57.73;94163.41;5026050;28;20478;-75
2022/02/28 06:28:37;;;;;;;2.13;1.92;;;;;;;1.46;57.47;94158.53;5027473;28;20104;-76
2022/02/28 06:31:03;;;;;;;3.70;1.75;;;;;;;1.49;57.60;94137.06;5027721;28;20040;-77
2022/02/28 06:33:29;;;;;;;2.70;1.73;;;;;;;0.90;57.88;94151.13;5029200;28;20091;-75
2022/02/28 06:35:54;;;;;;;2.28;1.65;;;;;;;1.03;58.69;94169.09;5027706;28;20064;-75
2022/02/28 06:38:20;;;;;;;4.13;2.40;;;;;;;1.30;58.60;94143.69;5019284;28;20033;-76
2022/02/28 06:40:47;;;;;;;3.85;2.28;;;;;;;1.59;58.15;94150.25;5029576;28;20648;-75
2022/02/28 06:43:14;;;;;;;2.35;2.05;;;;;;;1.20;58.94;94156.69;5045972;28;20115;-77
2022/02/28 06:45:40;;;;;;;1.92;1.45;;;;;;;1.27;58.36;94138.97;5026049;28;20041;-76
2022/02/28 06:48:05;;;;;;;2.63;1.60;;;;;;;1.43;58.74;94156.41;5025853;28;20345;-76
2022/02/28 06:50:31;;;;;;;3.20;2.22;;;;;;;1.03;58.91;94127.19;5024086;28;20072;-76
2022/02/28 06:52:57;;;;;;;2.70;2.15;;;;;;;1.07;59.21;94160.50;5028141;28;20043;-75
2022/02/28 06:55:22;;;;;;;2.28;1.80;;;;;;;1.20;59.12;94152.25;5025390;28;20511;-75
2022/02/28 06:57:48;;;;;;;2.70;2.38;;;;;;;1.19;59.58;94152.47;5022306;28;20695;-76
2022/02/28 07:00:14;;;;;;;4.60;2.22;;;;;;;0.43;60.95;94158.66;5039238;28;20400;-76
2022/02/28 07:02:40;;;;;;;2.40;2.03;;;;;;;0.24;61.69;94131.97;5027033;28;20132;-75
2022/02/28 07:05:07;;;;;;;2.42;2.00;;;;;;;0.20;61.31;94126.41;5026445;28;20029;-75
2022/02/28 07:07:32;;;;;;;3.88;2.25;;;;;;;0.00;63.66;94157.53;5029112;28;20017;-75
2022/02/28 07:09:58;;;;;;;4.55;2.67;;;;;;;0.40;64.11;94151.28;5025638;28;20044;-77
2022/02/28 07:12:24;;;;;;;3.33;2.40;;;;;;;0.43;63.53;94141.13;5029170;28;20048;-73
2022/02/28 07:14:49;;;;;;;9.15;5.15;;;;;;;0.11;64.96;94138.31;5025588;28;20476;-75
2022/02/28 07:17:15;;;;;;;7.18;4.28;;;;;;;0.48;64.87;94154.28;5025346;28;20045;-76
2022/02/28 07:19:42;;;;;;;9.18;3.40;;;;;;;0.76;62.67;94156.72;5025503;28;20029;-73
2022/02/28 07:22:08;;;;;;;5.65;4.03;;;;;;;0.66;62.52;94151.38;5026848;28;20033;-75
2022/02/28 07:24:33;;;;;;;7.38;3.13;;;;;;;0.44;62.86;94127.00;5023833;28;20083;-76
2022/02/28 07:26:59;;;;;;;5.60;3.92;;;;;;;0.76;62.85;94138.41;5024277;28;20040;-76
2022/02/28 07:29:24;;;;;;;6.70;4.47;;;;;;;0.75;63.19;94152.50;5022743;28;20106;-75
2022/02/28 07:31:50;;;;;;;5.90;4.05;;;;;;;0.59;63.44;94160.44;5023758;28;20032;-75
2022/02/28 07:34:15;;;;;;;5.38;3.13;;;;;;;0.72;63.19;94129.47;5023616;28;20029;-76
2022/02/28 07:36:41;;;;;;;3.38;3.08;;;;;;;0.99;62.23;94154.88;5021925;28;20167;-76
2022/02/28 07:39:06;;;;;;;3.92;2.55;;;;;;;0.67;64.90;94147.72;5026499;28;20625;-76
2022/02/28 07:41:32;;;;;;;1.85;1.75;;;;;;;0.76;63.68;94167.19;5023769;28;20590;-75
2022/02/28 07:43:58;;;;;;;1.92;1.77;;;;;;;1.11;62.28;94132.78;5023921;28;20435;-76
2022/02/28 07:46:23;;;;;;;3.00;2.63;;;;;;;1.16;61.30;94127.59;5024673;28;20037;-76
2022/02/28 07:48:49;;;;;;;4.47;3.08;;;;;;;0.76;63.31;94167.19;5021506;28;20076;-75
2022/02/28 07:51:16;;;;;;;5.80;3.58;;;;;;;0.37;65.52;94173.47;5022891;28;20567;-75
2022/02/28 07:53:41;;;;;;;4.85;3.90;;;;;;;0.40;65.47;94173.00;5024703;28;20037;-75
2022/02/28 07:56:07;;;;;;;8.45;5.55;;;;;;;0.27;66.00;94152.41;5022575;28;20474;-76
2022/02/28 07:58:33;;;;;;;9.52;6.38;;;;;;;0.30;66.29;94175.50;5028024;28;20029;-77
2022/02/28 08:00:59;;;;;;;8.77;5.88;;;;;;;-0.11;67.60;94176.69;5027320;28;21009;-72
2022/02/28 08:03:25;;;;;;;6.38;5.03;;;;;;;-0.47;69.39;94151.78;5026025;28;20079;-75
2022/02/28 08:05:50;;;;;;;5.53;4.43;;;;;;;0.26;68.70;94187.44;5027635;28;20033;-74
2022/02/28 08:08:15;;;;;;;6.90;3.92;;;;;;;0.42;67.12;94178.00;5026342;28;20060;-76
2022/02/28 08:10:41;;;;;;;5.68;3.42;;;;;;;-0.52;68.03;94154.31;5027779;28;20020;-75
2022/02/28 08:13:06;;;;;;;6.50;2.85;;;;;;;-0.62;69.06;94180.28;5023183;28;20549;-76
2022/02/28 08:15:32;;;;;;;5.88;3.83;;;;;;;-0.52;69.08;94170.00;5026309;28;20037;-76
2022/02/28 08:18:01;;;;;;;2.92;2.72;;;;;;;-0.15;67.89;94171.16;5026923;28;20064;-75
2022/02/28 08:20:27;;;;;;;5.72;3.92;;;;;;;0.06;67.79;94187.13;5026590;28;20041;-76
2022/02/28 08:22:52;;;;;;;3.80;2.70;;;;;;;-0.14;68.11;94182.41;5023113;28;20857;-76
2022/02/28 08:25:18;;;;;;;3.50;2.92;;;;;;;-0.67;67.84;94167.13;5021707;28;20042;-75
2022/02/28 08:27:43;;;;;;;3.63;2.70;;;;;;;-0.73;69.05;94183.75;5028436;28;20411;-75
2022/02/28 08:30:09;;;;;;;3.25;2.78;;;;;;;-0.43;68.33;94179.03;5025417;28;20456;-75
2022/02/28 08:32:34;;;;;;;5.05;3.45;;;;;;;-0.63;68.49;94189.91;5023950;28;20040;-75
2022/02/28 08:35:00;;;;;;;7.75;4.10;;;;;;;-0.14;67.69;94188.41;5026069;28;20029;-74
2022/02/28 08:37:25;;;;;;;4.68;3.90;;;;;;;-0.15;67.83;94184.22;5015198;28;21132;-75
2022/02/28 08:39:51;;;;;;;4.43;3.45;;;;;;;-0.50;67.93;94186.25;5017597;28;20064;-76
2022/02/28 08:42:16;;;;;;;6.32;4.85;;;;;;;-0.56;66.70;94176.72;5017767;28;20079;-76
2022/02/28 08:44:43;;;;;;;4.18;3.58;;;;;;;-0.87;67.66;94161.56;5014577;28;20037;-74
2022/02/28 08:47:09;;;;;;;7.05;4.55;;;;;;;-0.60;67.84;94171.19;5014937;28;20028;-77
2022/02/28 08:49:35;;;;;;;5.85;4.07;;;;;;;-0.30;66.98;94188.41;5015213;28;20089;-76
2022/02/28 08:52:01;;;;;;;8.15;4.65;;;;;;;-0.50;66.71;94154.88;5022040;28;20040;-77
2022/02/28 08:54:27;;;;;;;7.15;5.63;;;;;;;-0.29;67.28;94185.56;5012666;28;20560;-76
2022/02/28 08:56:52;;;;;;;5.35;3.85;;;;;;;0.09;66.26;94181.44;5019448;28;20697;-75
2022/02/28 08:59:18;;;;;;;7.45;3.75;;;;;;;0.34;64.23;94194.91;5022971;28;20025;-76
2022/02/28 09:01:43;;;;;;;4.38;3.53;;;;;;;0.58;62.92;94200.72;5021799;28;20033;-77
2022/02/28 09:04:08;;;;;;;2.97;2.72;;;;;;;0.90;62.33;94198.25;5038788;28;20057;-76
2022/02/28 09:06:34;;;;;;;5.45;3.10;;;;;;;0.87;59.79;94196.91;5022959;28;20116;-76
2022/02/28 09:08:59;;;;;;;3.75;2.88;;;;;;;0.98;60.38;94195.22;5032111;28;20520;-76
2022/02/28 09:11:25;;;;;;;3.63;2.97;;;;;;;1.04;59.94;94186.38;5022767;28;20041;-77
2022/02/28 09:13:50;;;;;;;6.28;3.67;;;;;;;0.76;60.29;94214.31;5025261;28;20079;-76
2022/02/28 09:16:21;;;;;;;5.90;4.18;;;;;;;-0.01;61.83;94215.28;5031522;28;20124;-73
2022/02/28 09:18:46;;;;;;;6.45;3.80;;;;;;;0.03;63.75;94219.81;5023706;28;20030;-76
2022/02/28 09:21:12;;;;;;;4.95;4.20;;;;;;;0.26;62.04;94205.75;5028850;28;20037;-73
2022/02/28 09:23:37;;;;;;;6.25;3.88;;;;;;;-0.21;63.82;94213.94;5019682;28;20064;-76
2022/02/28 09:26:04;;;;;;;9.35;4.22;;;;;;;-0.08;64.58;94205.75;5027380;28;20033;-74
2022/02/28 09:28:30;;;;;;;4.63;3.53;;;;;;;0.42;63.95;94212.81;5024994;28;20068;-75
2022/02/28 09:30:55;;;;;;;10.85;3.30;;;;;;;0.65;62.42;94206.56;5031501;28;20458;-74
2022/02/28 09:33:20;;;;;;;6.72;3.05;;;;;;;0.99;61.25;94222.97;5023669;28;20499;-74
2022/02/28 09:35:47;;;;;;;3.85;3.30;;;;;;;1.02;61.51;94201.56;5024593;28;20492;-75
2022/02/28 09:38:13;;;;;;;6.85;4.85;;;;;;;0.46;61.57;94166.81;5021907;28;20094;-75
2022/02/28 09:40:43;;;;;;;5.20;3.83;;;;;;;0.58;62.29;94222.47;5029948;28;20026;-73
2022/02/28 09:43:08;;;;;;;6.18;4.35;;;;;;;0.45;62.23;94225.41;5020100;28;20041;-73
2022/02/28 09:45:34;;;;;;;8.90;4.70;;;;;;;-0.13;62.20;94194.44;5027480;28;20573;-74
2022/02/28 09:48:01;;;;;;;8.05;3.92;;;;;;;-0.30;61.58;94204.88;5020440;28;20506;-74
2022/02/28 09:50:27;;;;;;;6.03;4.25;;;;;;;0.19;62.10;94219.03;5036509;28;20060;-74
2022/02/28 09:52:52;;;;;;;6.85;4.70;;;;;;;0.43;62.54;94214.41;5027784;28;20134;-73
2022/02/28 09:55:18;;;;;;;8.95;4.68;;;;;;;0.18;62.73;94216.63;5025755;28;20399;-74
2022/02/28 09:57:50;;;;;;;6.05;3.70;;;;;;;0.11;63.29;94222.00;5026012;28;20049;-73
2022/02/28 10:00:21;;;;;;;6.70;3.60;;;;;;;0.20;63.48;94217.19;5041298;28;20123;-74
2022/02/28 10:02:48;;;;;;;6.22;4.00;;;;;;;0.41;61.88;94215.66;5018955;28;20037;-75
2022/02/28 10:05:15;;;;;;;4.90;3.85;;;;;;;-0.26;63.04;94219.06;5020063;28;20034;-71
2022/02/28 10:07:49;;;;;;;4.90;3.08;;;;;;;-0.74;64.47;94221.34;5024906;28;20087;-72
2022/02/28 10:10:16;;;;;;;7.65;4.60;;;;;;;-0.37;65.07;94217.28;5021953;28;20126;-73
2022/02/28 10:12:42;;;;;;;7.82;4.95;;;;;;;-0.21;65.52;94219.16;5025512;28;20049;-72
2022/02/28 10:15:15;;;;;;;6.57;3.88;;;;;;;-0.22;66.66;94217.56;5016625;28;20048;-73
2022/02/28 10:17:48;;;;;;;4.85;3.80;;;;;;;-0.12;65.88;94196.81;5028673;28;20044;-71
2022/02/28 10:20:18;;;;;;;5.00;3.28;;;;;;;-0.31;63.36;94182.38;5032907;28;20269;-71
2022/02/28 10:22:43;;;;;;;7.47;3.78;;;;;;;-0.44;64.98;94208.84;5025304;28;20595;-72
2022/02/28 10:25:09;;;;;;;4.28;3.67;;;;;;;-0.44;65.79;94187.94;5017449;28;20049;-72
2022/02/28 10:27:34;;;;;;;3.67;2.60;;;;;;;-0.33;65.20;94218.41;5030277;28;20651;-72
2022/02/28 10:30:00;;;;;;;6.55;3.60;;;;;;;-0.13;65.52;94217.97;5026029;28;20044;-72
2022/02/28 10:32:27;;;;;;;5.13;3.30;;;;;;;-0.42;65.98;94206.75;5023425;28;20120;-72
2022/02/28 10:37:45;;;;;;;6.38;3.65;;;;;;;-1.21;65.65;94130.09;5021184;28;20679;-71
2022/02/28 10:40:12;;;;;;;12.63;3.95;;;;;;;-0.99;67.93;94216.41;5023046;28;20041;-73
2022/02/28 10:42:50;;;;;;;8.35;4.30;;;;;;;-0.70;68.81;94215.41;5020465;28;20033;-74
2022/02/28 10:45:18;;;;;;;5.15;4.38;;;;;;;-0.67;68.21;94214.13;5019708;28;20518;-72
2022/02/28 10:47:48;;;;;;;5.63;3.50;;;;;;;-1.18;69.12;94197.50;5013866;28;20053;-74
2022/02/28 10:50:28;;;;;;;7.75;4.07;;;;;;;-0.88;68.20;94212.97;5025594;28;20055;-72
2022/02/28 10:52:55;;;;;;;4.18;3.78;;;;;;;-0.68;68.34;94204.75;5015466;28;20026;-73
2022/02/28 10:55:34;;;;;;;4.75;3.85;;;;;;;-1.30;69.03;94180.28;5022186;28;20037;-72
2022/02/28 10:58:06;;;;;;;5.97;3.17;;;;;;;-1.28;70.38;94206.94;5014973;28;20105;-71
2022/02/28 11:00:48;;;;;;;5.68;3.95;;;;;;;-1.35;70.53;94211.47;5036290;28;20840;-72
2022/02/28 11:03:14;;;;;;;3.90;3.30;;;;;;;-0.85;70.88;94209.09;5016375;28;20850;-73
2022/02/28 11:05:52;;;;;;;3.95;3.33;;;;;;;-0.89;68.76;94172.22;5022947;28;20457;-72
2022/02/28 11:08:23;;;;;;;3.33;3.05;;;;;;;-0.59;70.49;94190.28;5022242;28;20467;-72
2022/02/28 11:10:50;;;;;;;4.75;3.78;;;;;;;-1.16;68.21;94208.50;5024366;28;20128;-71
2022/02/28 11:13:16;;;;;;;3.95;3.13;;;;;;;-1.37;69.50;94185.63;5021190;28;20072;-72
2022/02/28 11:15:42;;;;;;;8.20;4.13;;;;;;;-1.29;69.59;94187.09;5026088;28;20595;-73
2022/02/28 11:18:12;;;;;;;3.47;3.17;;;;;;;-1.61;69.34;94182.28;5020899;28;20648;-70
2022/02/28 11:20:39;;;;;;;7.15;3.55;;;;;;;-1.35;70.27;94191.41;5023993;28;20586;-71
2022/02/28 11:23:05;;;;;;;6.13;4.20;;;;;;;-1.44;70.67;94205.84;5022347;28;20024;-74
2022/02/28 11:25:32;;;;;;;6.63;4.63;;;;;;;-1.32;69.85;94201.41;5035207;28;20146;-71
2022/02/28 11:27:59;;;;;;;6.10;4.60;;;;;;;-1.32;68.26;94203.22;5029573;28;20187;-72
2022/02/28 11:30:28;;;;;;;4.65;4.13;;;;;;;-1.33;69.06;94204.22;5025626;28;20037;-74
2022/02/28 11:33:09;;;;;;;6.68;3.95;;;;;;;-1.67;69.38;94166.75;5024191;28;20036;-73
2022/02/28 11:35:53;;;;;;;5.38;3.63;;;;;;;-1.47;69.44;94188.03;5028928;28;20047;-72
2022/02/28 11:38:18;;;;;;;4.35;2.90;;;;;;;-1.49;69.17;94193.47;5020937;28;20029;-71